Time,TemperatureF,DewpointF,PressureIn,WindDirection,WindDirectionDegrees,WindSpeedMPH,WindSpeedGustMPH,Humidity,HourlyPrecipIn,Conditions,Clouds,dailyrainin,SolarRadiationWatts/m^2,SoftwareType,DateUTC
2013-01-01 00:01:00,24.9,21.0,30.27,NW,323,0.0,0.0,85,0.00,,,0.07,0,Wunderground v.1.15,2013-01-01 07:01:00,
2013-01-01 00:06:00,24.9,21.3,30.26,NW,323,0.0,0.0,86,0.00,,,0.07,0,Wunderground v.1.15,2013-01-01 07:06:00,
2013-01-01 00:16:00,25.3,21.4,30.27,NW,323,0.0,0.0,85,0.00,,,0.07,0,Wunderground v.1.15,2013-01-01 07:16:00,
2013-01-01 00:26:00,25.3,21.7,30.25,NW,323,0.0,0.0,86,0.00,,,0.07,0,Wunderground v.1.15,2013-01-01 07:26:00,
2013-01-01 00:31:00,24.9,21.3,30.25,NW,323,0.0,0.0,86,0.00,,,0.07,0,Wunderground v.1.15,2013-01-01 07:31:00,
2013-01-01 00:41:00,24.7,21.1,30.25,NW,323,0.0,0.0,86,0.00,,,0.07,0,Wunderground v.1.15,2013-01-01 07:41:00,
2013-01-01 00:46:00,24.4,20.8,30.25,NW,323,0.0,0.0,86,0.00,,,0.07,0,Wunderground v.1.15,2013-01-01 07:46:00,
2013-01-01 00:51:00,24.3,20.7,30.25,NW,323,0.0,0.0,86,0.00,,,0.07,0,Wunderground v.1.15,2013-01-01 07:51:00,
2013-01-01 01:01:00,24.6,21.3,30.25,NW,323,0.0,0.0,87,0.00,,,0.07,0,Wunderground v.1.15,2013-01-01 08:01:00,
2013-01-01 01:06:00,24.9,21.6,30.25,NW,323,0.0,0.0,87,0.00,,,0.07,0,Wunderground v.1.15,2013-01-01 08:06:00,
2013-01-01 01:16:00,25.1,21.8,30.25,NW,323,0.0,3.0,87,0.00,,,0.07,0,Wunderground v.1.15,2013-01-01 08:16:00,
2013-01-01 01:21:00,25.1,21.8,30.24,NW,323,0.0,0.0,87,0.00,,,0.07,0,Wunderground v.1.15,2013-01-01 08:21:00,
2013-01-01 01:26:00,24.9,21.3,30.24,NW,323,0.0,0.0,86,0.00,,,0.07,0,Wunderground v.1.15,2013-01-01 08:26:00,
2013-01-01 01:36:00,24.9,21.6,30.24,NW,323,0.0,0.0,87,0.00,,,0.07,0,Wunderground v.1.15,2013-01-01 08:36:00,
2013-01-01 01:41:00,24.9,21.6,30.25,NW,323,0.0,0.0,87,0.00,,,0.07,0,Wunderground v.1.15,2013-01-01 08:41:00,
2013-01-01 01:46:00,24.9,21.3,30.25,NW,323,0.0,0.0,86,0.00,,,0.07,0,Wunderground v.1.15,2013-01-01 08:46:00,
2013-01-01 01:56:00,24.8,21.2,30.25,NW,323,0.0,0.0,86,0.00,,,0.07,0,Wunderground v.1.15,2013-01-01 08:56:00,
2013-01-01 02:01:00,24.7,21.1,30.25,NW,323,0.0,0.0,86,0.00,,,0.07,0,Wunderground v.1.15,2013-01-01 09:01:00,
2013-01-01 02:11:00,24.4,20.8,30.26,NW,323,0.0,0.0,86,0.00,,,0.07,0,Wunderground v.1.15,2013-01-01 09:11:00,
2013-01-01 02:21:00,24.1,20.5,30.26,NW,323,0.0,0.0,86,0.00,,,0.07,0,Wunderground v.1.15,2013-01-01 09:21:00,
2013-01-01 02:26:00,24.0,20.4,30.26,NW,323,0.0,0.0,86,0.00,,,0.07,0,Wunderground v.1.15,2013-01-01 09:26:00,
2013-01-01 02:31:00,23.8,20.2,30.26,NW,323,0.0,0.0,86,0.00,,,0.07,0,Wunderground v.1.15,2013-01-01 09:31:00,
2013-01-01 02:36:00,23.6,20.0,30.27,NW,323,0.0,0.0,86,0.00,,,0.07,0,Wunderground v.1.15,2013-01-01 09:36:00,
2013-01-01 02:46:00,23.3,19.7,30.27,NW,323,0.0,0.0,86,0.00,,,0.07,0,Wunderground v.1.15,2013-01-01 09:46:00,
2013-01-01 02:56:00,23.0,19.4,30.27,NW,323,0.0,0.0,86,0.00,,,0.07,0,Wunderground v.1.15,2013-01-01 09:56:00,
2013-01-01 03:01:00,23.2,19.6,30.27,NW,323,0.0,0.0,86,0.00,,,0.07,0,Wunderground v.1.15,2013-01-01 10:01:00,
2013-01-01 03:06:00,23.2,19.9,30.27,NW,323,0.0,0.0,87,0.00,,,0.07,0,Wunderground v.1.15,2013-01-01 10:06:00,
2013-01-01 03:11:00,23.2,19.9,30.27,NW,323,0.0,0.0,87,0.00,,,0.07,0,Wunderground v.1.15,2013-01-01 10:11:00,
2013-01-01 03:16:00,22.8,19.2,30.27,NW,323,0.0,0.0,86,0.00,,,0.07,0,Wunderground v.1.15,2013-01-01 10:16:00,
2013-01-01 03:21:00,22.6,19.0,30.28,NW,323,0.0,0.0,86,0.00,,,0.00,0,Wunderground v.1.15,2013-01-01 10:21:00,
2013-01-01 03:26:00,21.5,17.7,30.29,NW,323,0.0,0.0,85,0.00,,,0.00,0,Wunderground v.1.15,2013-01-01 10:26:00,
2013-01-01 03:31:00,20.5,17.0,30.28,NW,323,0.0,0.0,86,0.00,,,0.00,0,Wunderground v.1.15,2013-01-01 10:31:00,
2013-01-01 03:36:00,20.7,17.2,30.28,NW,323,0.0,0.0,86,0.00,,,0.00,0,Wunderground v.1.15,2013-01-01 10:36:00,
2013-01-01 03:41:00,20.5,16.7,30.28,NW,323,0.0,0.0,85,0.00,,,0.00,0,Wunderground v.1.15,2013-01-01 10:41:00,
2013-01-01 03:46:00,19.7,15.9,30.29,NW,323,0.0,0.0,85,0.00,,,0.00,0,Wunderground v.1.15,2013-01-01 10:46:00,
2013-01-01 03:51:00,20.4,17.1,30.29,NW,323,0.0,0.0,87,0.00,,,0.00,0,Wunderground v.1.15,2013-01-01 10:51:00,
2013-01-01 03:56:00,20.8,17.5,30.28,NW,323,0.0,0.0,87,0.00,,,0.00,0,Wunderground v.1.15,2013-01-01 10:56:00,
2013-01-01 04:01:00,21.2,17.9,30.28,NW,323,0.0,0.0,87,0.00,,,0.00,0,Wunderground v.1.15,2013-01-01 11:01:00,
2013-01-01 04:11:00,21.1,17.6,30.28,NW,323,0.0,0.0,86,0.00,,,0.00,0,Wunderground v.1.15,2013-01-01 11:11:00,
2013-01-01 04:21:00,20.3,17.0,30.31,NW,323,0.0,0.0,87,0.00,,,0.00,0,Wunderground v.1.15,2013-01-01 11:21:00,
2013-01-01 04:26:00,20.8,17.5,30.31,NW,323,0.0,0.0,87,0.00,,,0.00,0,Wunderground v.1.15,2013-01-01 11:26:00,
2013-01-01 04:36:00,21.5,18.2,30.30,NW,323,0.0,0.0,87,0.00,,,0.00,0,Wunderground v.1.15,2013-01-01 11:36:00,
2013-01-01 04:46:00,21.2,17.7,30.31,NW,323,0.0,0.0,86,0.00,,,0.00,0,Wunderground v.1.15,2013-01-01 11:46:00,
2013-01-01 04:56:00,19.7,16.5,30.31,NW,323,0.0,0.0,87,0.00,,,0.00,0,Wunderground v.1.15,2013-01-01 11:56:00,
2013-01-01 05:01:00,20.1,16.9,30.31,NW,323,0.0,0.0,87,0.00,,,0.00,0,Wunderground v.1.15,2013-01-01 12:01:00,
2013-01-01 05:06:00,20.3,17.0,30.31,NW,323,0.0,0.0,87,0.00,,,0.00,0,Wunderground v.1.15,2013-01-01 12:06:00,
2013-01-01 05:16:00,20.2,16.7,30.30,NW,323,0.0,0.0,86,0.00,,,0.00,0,Wunderground v.1.15,2013-01-01 12:16:00,
2013-01-01 05:21:00,20.0,16.5,30.32,NW,323,0.0,0.0,86,0.00,,,0.00,0,Wunderground v.1.15,2013-01-01 12:21:00,
2013-01-01 05:26:00,19.9,16.4,30.31,NW,323,0.0,0.0,86,0.00,,,0.00,0,Wunderground v.1.15,2013-01-01 12:26:00,
2013-01-01 05:36:00,19.7,16.2,30.32,NW,323,0.0,0.0,86,0.00,,,0.00,0,Wunderground v.1.15,2013-01-01 12:36:00,
2013-01-01 05:41:00,19.7,16.2,30.32,NW,323,0.0,0.0,86,0.00,,,0.00,0,Wunderground v.1.15,2013-01-01 12:41:00,
2013-01-01 05:51:00,19.5,16.0,30.32,NW,323,0.0,0.0,86,0.00,,,0.00,0,Wunderground v.1.15,2013-01-01 12:51:00,
2013-01-01 05:56:00,19.4,18.2,30.33,NW,323,0.0,0.0,95,0.00,,,0.00,0,Wunderground v.1.15,2013-01-01 12:56:00,
2013-01-01 06:01:00,19.4,15.9,30.33,NW,323,0.0,0.0,86,0.00,,,0.00,0,Wunderground v.1.15,2013-01-01 13:01:00,
2013-01-01 06:11:00,19.4,15.9,30.33,NW,323,0.0,0.0,86,0.00,,,0.00,0,Wunderground v.1.15,2013-01-01 13:11:00,
2013-01-01 06:21:00,19.5,16.0,30.33,NW,323,0.0,0.0,86,0.00,,,0.00,0,Wunderground v.1.15,2013-01-01 13:21:00,
2013-01-01 06:26:00,19.7,16.2,30.33,NW,323,0.0,0.0,86,0.00,,,0.00,0,Wunderground v.1.15,2013-01-01 13:26:00,
2013-01-01 06:31:00,19.7,16.2,30.33,NW,323,0.0,0.0,86,0.00,,,0.00,0,Wunderground v.1.15,2013-01-01 13:31:00,
2013-01-01 06:36:00,19.7,16.2,30.33,NW,323,0.0,0.0,86,0.00,,,0.00,0,Wunderground v.1.15,2013-01-01 13:36:00,
2013-01-01 06:41:00,19.7,16.2,30.33,NW,323,0.0,0.0,86,0.00,,,0.00,0,Wunderground v.1.15,2013-01-01 13:41:00,
2013-01-01 06:46:00,19.7,16.2,30.33,NW,323,0.0,0.0,86,0.00,,,0.00,0,Wunderground v.1.15,2013-01-01 13:46:00,
2013-01-01 06:51:00,19.7,16.2,30.33,NW,323,0.0,0.0,86,0.00,,,0.00,0,Wunderground v.1.15,2013-01-01 13:51:00,
2013-01-01 06:56:00,19.7,16.2,30.33,NW,323,0.0,0.0,86,0.00,,,0.00,0,Wunderground v.1.15,2013-01-01 13:56:00,
2013-01-01 07:01:00,19.5,16.0,30.33,NW,323,0.0,0.0,86,0.00,,,0.00,0,Wunderground v.1.15,2013-01-01 14:01:00,
2013-01-01 07:11:00,19.0,15.2,30.35,NW,323,0.0,0.0,85,0.00,,,0.00,0,Wunderground v.1.15,2013-01-01 14:11:00,
2013-01-01 07:16:00,18.9,15.4,30.35,NW,323,0.0,0.0,86,0.00,,,0.00,0,Wunderground v.1.15,2013-01-01 14:16:00,
2013-01-01 07:21:00,18.7,15.2,30.36,NW,323,0.0,0.0,86,0.00,,,0.00,5,Wunderground v.1.15,2013-01-01 14:21:00,
2013-01-01 07:31:00,18.6,15.1,30.36,NW,323,0.0,0.0,86,0.00,,,0.00,9,Wunderground v.1.15,2013-01-01 14:31:00,
2013-01-01 07:36:00,18.7,15.2,30.36,NW,323,0.0,0.0,86,0.00,,,0.00,12,Wunderground v.1.15,2013-01-01 14:36:00,
2013-01-01 07:46:00,19.7,16.2,30.35,NW,323,0.0,0.0,86,0.00,,,0.00,18,Wunderground v.1.15,2013-01-01 14:46:00,
2013-01-01 07:51:00,20.6,17.3,30.35,NW,323,0.0,0.0,87,0.00,,,0.00,23,Wunderground v.1.15,2013-01-01 14:51:00,
2013-01-01 07:56:00,21.5,18.2,30.34,NW,323,0.0,0.0,87,0.00,,,0.00,28,Wunderground v.1.15,2013-01-01 14:56:00,
2013-01-01 08:01:00,22.5,19.2,30.34,NW,323,0.0,0.0,87,0.00,,,0.00,39,Wunderground v.1.15,2013-01-01 15:01:00,
2013-01-01 08:11:00,23.9,20.6,30.32,NW,323,0.0,0.0,87,0.00,,,0.00,74,Wunderground v.1.15,2013-01-01 15:11:00,
2013-01-01 08:21:00,23.9,20.3,30.35,NW,323,0.0,0.0,86,0.00,,,0.00,116,Wunderground v.1.15,2013-01-01 15:21:00,
2013-01-01 08:31:00,24.7,21.1,30.34,NW,323,0.0,0.0,86,0.00,,,0.00,197,Wunderground v.1.15,2013-01-01 15:31:00,
2013-01-01 08:36:00,25.2,21.6,30.34,NW,323,0.0,0.0,86,0.00,,,0.00,229,Wunderground v.1.15,2013-01-01 15:36:00,
2013-01-01 08:41:00,26.0,22.4,30.34,NW,323,0.0,0.0,86,0.00,,,0.01,248,Wunderground v.1.15,2013-01-01 15:41:00,
2013-01-01 08:46:00,26.7,23.1,30.33,NW,323,0.0,0.0,86,0.00,,,0.01,186,Wunderground v.1.15,2013-01-01 15:46:00,
2013-01-01 08:56:00,27.8,24.2,30.34,NW,323,0.0,0.0,86,0.00,,,0.01,272,Wunderground v.1.15,2013-01-01 15:56:00,
2013-01-01 09:06:00,28.9,25.0,30.33,NW,323,0.0,0.0,85,0.00,,,0.01,316,Wunderground v.1.15,2013-01-01 16:06:00,
2013-01-01 09:16:00,29.9,25.1,30.33,NW,323,0.0,0.0,82,0.00,,,0.01,359,Wunderground v.1.15,2013-01-01 16:16:00,
2013-01-01 09:21:00,30.9,25.2,30.33,NW,323,0.0,0.0,79,0.00,,,0.01,390,Wunderground v.1.15,2013-01-01 16:21:00,
2013-01-01 09:26:00,31.5,25.4,30.33,NW,323,0.0,0.0,78,0.00,,,0.01,438,Wunderground v.1.15,2013-01-01 16:26:00,
2013-01-01 09:36:00,32.5,27.0,30.32,NW,323,0.0,0.0,80,0.00,,,0.01,302,Wunderground v.1.15,2013-01-01 16:36:00,
2013-01-01 09:41:00,32.0,25.0,30.32,NW,323,0.0,0.0,75,0.00,,,0.01,251,Wunderground v.1.15,2013-01-01 16:41:00,
2013-01-01 09:46:00,32.2,26.1,30.32,NW,323,0.0,0.0,78,0.00,,,0.01,241,Wunderground v.1.15,2013-01-01 16:46:00,
2013-01-01 09:51:00,33.3,27.2,30.32,NW,323,0.0,0.0,78,0.00,,,0.01,445,Wunderground v.1.15,2013-01-01 16:51:00,
2013-01-01 09:56:00,32.8,26.1,30.32,NW,323,0.0,0.0,76,0.00,,,0.01,429,Wunderground v.1.15,2013-01-01 16:56:00,
2013-01-01 10:06:00,33.4,26.3,30.33,NW,323,0.0,1.0,75,0.00,,,0.01,281,Wunderground v.1.15,2013-01-01 17:06:00,
2013-01-01 10:11:00,33.5,26.1,30.31,NW,323,0.0,0.0,74,0.00,,,0.01,371,Wunderground v.1.15,2013-01-01 17:11:00,
2013-01-01 10:21:00,35.0,26.9,30.31,NW,323,0.0,0.0,72,0.00,,,0.01,550,Wunderground v.1.15,2013-01-01 17:21:00,
2013-01-01 10:26:00,35.0,26.2,30.31,NW,323,0.0,3.0,70,0.00,,,0.01,520,Wunderground v.1.15,2013-01-01 17:26:00,
2013-01-01 10:36:00,36.9,27.0,30.30,NW,323,0.0,4.0,67,0.00,,,0.01,538,Wunderground v.1.15,2013-01-01 17:36:00,
2013-01-01 10:41:00,37.3,25.8,30.31,NW,323,0.0,0.0,63,0.00,,,0.01,501,Wunderground v.1.15,2013-01-01 17:41:00,
2013-01-01 10:46:00,37.4,24.4,30.31,NW,323,0.0,0.0,59,0.00,,,0.01,589,Wunderground v.1.15,2013-01-01 17:46:00,
2013-01-01 10:56:00,37.9,24.8,30.29,NW,323,0.0,2.0,59,0.00,,,0.01,585,Wunderground v.1.15,2013-01-01 17:56:00,
2013-01-01 11:06:00,38.7,23.0,30.29,NW,323,0.0,0.0,53,0.00,,,0.01,598,Wunderground v.1.15,2013-01-01 18:06:00,
2013-01-01 11:16:00,38.6,22.9,30.28,NW,323,0.0,0.0,53,0.00,,,0.01,596,Wunderground v.1.15,2013-01-01 18:16:00,
2013-01-01 11:21:00,39.3,23.1,30.28,NW,323,0.0,0.0,52,0.00,,,0.01,615,Wunderground v.1.15,2013-01-01 18:21:00,
2013-01-01 11:31:00,40.0,22.4,30.27,NW,323,0.0,0.0,49,0.00,,,0.01,629,Wunderground v.1.15,2013-01-01 18:31:00,
2013-01-01 11:36:00,40.4,22.7,30.27,NW,323,0.0,2.0,49,0.00,,,0.01,638,Wunderground v.1.15,2013-01-01 18:36:00,
2013-01-01 11:41:00,41.2,23.0,30.26,NW,323,0.0,3.0,48,0.00,,,0.01,645,Wunderground v.1.15,2013-01-01 18:41:00,
2013-01-01 11:51:00,41.2,22.0,30.25,NW,323,0.0,1.0,46,0.00,,,0.01,652,Wunderground v.1.15,2013-01-01 18:51:00,
2013-01-01 11:56:00,40.9,22.2,30.25,NW,323,0.0,4.0,47,0.00,,,0.01,680,Wunderground v.1.15,2013-01-01 18:56:00,
2013-01-01 12:06:00,42.5,21.5,30.24,NW,323,0.0,2.0,43,0.00,,,0.01,673,Wunderground v.1.15,2013-01-01 19:06:00,
2013-01-01 12:11:00,41.9,20.4,30.25,NW,323,0.0,2.0,42,0.00,,,0.01,679,Wunderground v.1.15,2013-01-01 19:11:00,
2013-01-01 12:21:00,42.0,20.5,30.24,NW,323,0.0,5.0,42,0.00,,,0.01,715,Wunderground v.1.15,2013-01-01 19:21:00,
2013-01-01 12:26:00,43.2,21.6,30.23,NW,323,0.0,5.0,42,0.00,,,0.01,438,Wunderground v.1.15,2013-01-01 19:26:00,
2013-01-01 12:31:00,41.3,19.3,30.23,NW,323,0.0,1.0,41,0.00,,,0.01,350,Wunderground v.1.15,2013-01-01 19:31:00,
2013-01-01 12:36:00,42.0,21.6,30.22,NW,323,0.0,1.0,44,0.00,,,0.01,585,Wunderground v.1.15,2013-01-01 19:36:00,
2013-01-01 12:46:00,41.8,21.5,30.21,NW,323,0.0,0.0,44,0.00,,,0.01,612,Wunderground v.1.15,2013-01-01 19:46:00,
2013-01-01 12:56:00,43.3,22.3,30.19,NNW,331,0.0,2.0,43,0.00,,,0.01,629,Wunderground v.1.15,2013-01-01 19:56:00,
2013-01-01 13:01:00,42.6,20.5,30.19,NNW,331,0.0,4.0,41,0.00,,,0.01,626,Wunderground v.1.15,2013-01-01 20:01:00,
2013-01-01 13:06:00,42.7,20.0,30.19,NNW,332,0.0,4.0,40,0.00,,,0.01,640,Wunderground v.1.15,2013-01-01 20:06:00,
2013-01-01 13:11:00,42.7,21.2,30.19,NNW,332,0.0,0.0,42,0.00,,,0.01,631,Wunderground v.1.15,2013-01-01 20:11:00,
2013-01-01 13:16:00,43.2,20.5,30.19,NNW,331,0.0,1.0,40,0.00,,,0.01,628,Wunderground v.1.15,2013-01-01 20:16:00,
2013-01-01 13:26:00,43.9,22.3,30.19,WNW,283,0.0,6.0,42,0.00,,,0.01,592,Wunderground v.1.15,2013-01-01 20:26:00,
2013-01-01 13:31:00,44.7,22.4,30.18,WNW,283,0.0,3.0,41,0.00,,,0.01,628,Wunderground v.1.15,2013-01-01 20:31:00,
2013-01-01 13:41:00,43.5,22.5,30.18,WNW,290,0.0,0.0,43,0.00,,,0.01,362,Wunderground v.1.15,2013-01-01 20:41:00,
2013-01-01 13:46:00,43.2,21.6,30.19,WNW,290,0.0,4.0,42,0.00,,,0.01,459,Wunderground v.1.15,2013-01-01 20:46:00,
2013-01-01 13:51:00,43.4,22.4,30.18,WNW,290,0.0,3.0,43,0.00,,,0.01,350,Wunderground v.1.15,2013-01-01 20:51:00,
2013-01-01 14:01:00,44.2,23.6,30.17,WNW,284,1.0,1.0,44,0.00,,,0.01,591,Wunderground v.1.15,2013-01-01 21:01:00,
2013-01-01 14:11:00,45.4,23.6,30.17,SW,234,1.0,1.0,42,0.00,,,0.01,563,Wunderground v.1.15,2013-01-01 21:11:00,
2013-01-01 14:21:00,44.9,22.6,30.17,SW,234,1.0,1.0,41,0.00,,,0.01,534,Wunderground v.1.15,2013-01-01 21:21:00,
2013-01-01 14:31:00,45.1,23.3,30.16,SW,232,1.0,1.0,42,0.00,,,0.01,513,Wunderground v.1.15,2013-01-01 21:31:00,
2013-01-01 14:41:00,45.2,23.4,30.16,SW,230,1.0,1.0,42,0.00,,,0.01,492,Wunderground v.1.15,2013-01-01 21:41:00,
2013-01-01 14:46:00,45.0,23.8,30.16,SW,230,1.0,7.0,43,0.00,,,0.01,480,Wunderground v.1.15,2013-01-01 21:46:00,
2013-01-01 14:51:00,45.0,22.7,30.16,SW,230,1.0,1.0,41,0.00,,,0.01,468,Wunderground v.1.15,2013-01-01 21:51:00,
2013-01-01 14:56:00,45.3,23.0,30.16,SW,230,1.0,3.0,41,0.00,,,0.01,454,Wunderground v.1.15,2013-01-01 21:56:00,
2013-01-01 15:01:00,45.5,23.1,30.16,SW,230,1.0,1.0,41,0.00,,,0.01,445,Wunderground v.1.15,2013-01-01 22:01:00,
2013-01-01 15:11:00,46.3,23.3,30.16,SW,230,1.0,4.0,40,0.00,,,0.01,417,Wunderground v.1.15,2013-01-01 22:11:00,
2013-01-01 15:16:00,45.8,22.8,30.16,SW,230,1.0,4.0,40,0.00,,,0.01,401,Wunderground v.1.15,2013-01-01 22:16:00,
2013-01-01 15:21:00,45.7,22.7,30.17,SW,230,1.0,4.0,40,0.00,,,0.01,388,Wunderground v.1.15,2013-01-01 22:21:00,
2013-01-01 15:26:00,45.3,22.4,30.17,SW,230,1.0,7.0,40,0.00,,,0.01,373,Wunderground v.1.15,2013-01-01 22:26:00,
2013-01-01 15:31:00,45.2,21.7,30.18,SW,230,1.0,1.0,39,0.00,,,0.01,359,Wunderground v.1.15,2013-01-01 22:31:00,
2013-01-01 15:36:00,45.5,23.1,30.17,SW,230,1.0,5.0,41,0.00,,,0.01,345,Wunderground v.1.15,2013-01-01 22:36:00,
2013-01-01 15:41:00,45.5,22.5,30.18,SW,230,2.0,2.0,40,0.00,,,0.01,330,Wunderground v.1.15,2013-01-01 22:41:00,
2013-01-01 15:46:00,45.6,22.6,30.17,SW,230,1.0,6.0,40,0.00,,,0.01,313,Wunderground v.1.15,2013-01-01 22:46:00,
2013-01-01 15:51:00,46.1,23.1,30.17,SW,230,1.0,1.0,40,0.00,,,0.01,299,Wunderground v.1.15,2013-01-01 22:51:00,
2013-01-01 16:01:00,45.6,22.6,30.17,SW,230,1.0,1.0,40,0.00,,,0.01,267,Wunderground v.1.15,2013-01-01 23:01:00,
2013-01-01 16:06:00,45.2,22.9,30.18,SW,230,1.0,5.0,41,0.00,,,0.01,246,Wunderground v.1.15,2013-01-01 23:06:00,
2013-01-01 16:16:00,45.1,21.0,30.17,SW,230,1.0,5.0,38,0.00,,,0.01,207,Wunderground v.1.15,2013-01-01 23:16:00,
2013-01-01 16:21:00,45.0,20.3,30.18,SW,230,2.0,5.0,37,0.00,,,0.01,186,Wunderground v.1.15,2013-01-01 23:21:00,
2013-01-01 16:26:00,45.0,20.9,30.18,SW,230,1.0,7.0,38,0.00,,,0.01,163,Wunderground v.1.15,2013-01-01 23:26:00,
2013-01-01 16:36:00,44.6,20.5,30.18,SW,229,2.0,6.0,38,0.00,,,0.01,139,Wunderground v.1.15,2013-01-01 23:36:00,
2013-01-01 16:46:00,44.5,20.4,30.17,SW,229,0.0,4.0,38,0.00,,,0.01,125,Wunderground v.1.15,2013-01-01 23:46:00,
2013-01-01 16:51:00,44.5,20.4,30.18,SW,229,0.0,4.0,38,0.00,,,0.01,104,Wunderground v.1.15,2013-01-01 23:51:00,
2013-01-01 17:01:00,44.0,20.0,30.17,SW,229,1.0,1.0,38,0.00,,,0.01,60,Wunderground v.1.15,2013-01-02 00:01:00,
2013-01-01 17:11:00,43.3,20.6,30.19,SW,229,1.0,3.0,40,0.00,,,0.01,42,Wunderground v.1.15,2013-01-02 00:11:00,
2013-01-01 17:16:00,42.9,20.2,30.19,SW,228,0.0,4.0,40,0.00,,,0.01,35,Wunderground v.1.15,2013-01-02 00:16:00,
2013-01-01 17:21:00,42.7,19.4,30.19,SW,228,0.0,2.0,39,0.00,,,0.01,23,Wunderground v.1.15,2013-01-02 00:21:00,
2013-01-01 17:26:00,42.4,19.8,30.20,SW,229,0.0,2.0,40,0.00,,,0.01,9,Wunderground v.1.15,2013-01-02 00:26:00,
2013-01-01 17:31:00,41.9,19.9,30.20,SW,229,0.0,0.0,41,0.00,,,0.01,0,Wunderground v.1.15,2013-01-02 00:31:00,
2013-01-01 17:41:00,40.8,19.5,30.20,SW,229,0.0,2.0,42,0.00,,,0.01,0,Wunderground v.1.15,2013-01-02 00:41:00,
2013-01-01 17:46:00,40.4,19.6,30.20,SW,228,1.0,2.0,43,0.00,,,0.01,0,Wunderground v.1.15,2013-01-02 00:46:00,
2013-01-01 17:51:00,39.9,19.7,30.21,SW,229,0.0,6.0,44,0.00,,,0.01,0,Wunderground v.1.15,2013-01-02 00:51:00,
2013-01-01 17:56:00,39.6,19.5,30.21,SW,228,0.0,6.0,44,0.00,,,0.01,0,Wunderground v.1.15,2013-01-02 00:56:00,
2013-01-01 18:01:00,39.1,19.5,30.21,SW,229,0.0,1.0,45,0.00,,,0.01,0,Wunderground v.1.15,2013-01-02 01:01:00,
2013-01-01 18:06:00,38.8,19.8,30.21,SW,229,0.0,1.0,46,0.00,,,0.01,0,Wunderground v.1.15,2013-01-02 01:06:00,
2013-01-01 18:11:00,38.4,19.4,30.22,SW,228,0.0,0.0,46,0.00,,,0.01,0,Wunderground v.1.15,2013-01-02 01:11:00,
2013-01-01 18:16:00,38.2,19.7,30.23,SW,229,0.0,0.0,47,0.00,,,0.01,0,Wunderground v.1.15,2013-01-02 01:16:00,
2013-01-01 18:21:00,38.2,19.7,30.23,SW,229,0.0,0.0,47,0.00,,,0.01,0,Wunderground v.1.15,2013-01-02 01:21:00,
2013-01-01 18:31:00,37.4,20.0,30.22,SW,228,0.0,0.0,49,0.00,,,0.01,0,Wunderground v.1.15,2013-01-02 01:31:00,
2013-01-01 18:36:00,36.8,19.9,30.22,SW,229,0.0,0.0,50,0.00,,,0.01,0,Wunderground v.1.15,2013-01-02 01:36:00,
2013-01-01 18:46:00,36.5,21.0,30.22,SW,229,0.0,0.0,53,0.00,,,0.01,0,Wunderground v.1.15,2013-01-02 01:46:00,
2013-01-01 18:51:00,36.6,21.5,30.22,SW,229,0.0,0.0,54,0.00,,,0.01,0,Wunderground v.1.15,2013-01-02 01:51:00,
2013-01-01 18:56:00,36.6,21.5,30.22,SW,228,0.0,0.0,54,0.00,,,0.01,0,Wunderground v.1.15,2013-01-02 01:56:00,
2013-01-01 19:01:00,36.6,21.9,30.22,SW,229,0.0,0.0,55,0.00,,,0.01,0,Wunderground v.1.15,2013-01-02 02:01:00,
2013-01-01 19:11:00,36.6,21.9,30.23,SW,229,0.0,0.0,55,0.00,,,0.01,0,Wunderground v.1.15,2013-01-02 02:11:00,
2013-01-01 19:16:00,36.4,21.8,30.24,SW,229,0.0,0.0,55,0.00,,,0.01,0,Wunderground v.1.15,2013-01-02 02:16:00,
2013-01-01 19:26:00,36.0,22.2,30.21,SW,228,0.0,0.0,57,0.00,,,0.01,0,Wunderground v.1.15,2013-01-02 02:26:00,
2013-01-01 19:31:00,36.1,22.7,30.20,SW,228,0.0,0.0,58,0.00,,,0.01,0,Wunderground v.1.15,2013-01-02 02:31:00,
2013-01-01 19:41:00,36.1,23.1,30.21,SW,229,0.0,0.0,59,0.00,,,0.01,0,Wunderground v.1.15,2013-01-02 02:41:00,
2013-01-01 19:51:00,34.2,22.1,30.22,SW,229,0.0,0.0,61,0.00,,,0.01,0,Wunderground v.1.15,2013-01-02 02:51:00,
2013-01-01 20:01:00,34.4,23.1,30.23,SW,229,0.0,0.0,63,0.00,,,0.01,0,Wunderground v.1.15,2013-01-02 03:01:00,
2013-01-01 20:06:00,34.6,23.3,30.23,SW,228,0.0,0.0,63,0.00,,,0.01,0,Wunderground v.1.15,2013-01-02 03:06:00,
2013-01-01 20:16:00,34.7,23.8,30.23,SW,229,0.0,0.0,64,0.00,,,0.01,0,Wunderground v.1.15,2013-01-02 03:16:00,
2013-01-01 20:21:00,34.6,24.0,30.20,SW,229,0.0,0.0,65,0.00,,,0.01,0,Wunderground v.1.15,2013-01-02 03:21:00,
2013-01-01 20:31:00,35.0,24.4,30.20,SW,229,0.0,0.0,65,0.00,,,0.01,0,Wunderground v.1.15,2013-01-02 03:31:00,
2013-01-01 20:36:00,34.3,24.1,30.21,SW,229,0.0,0.0,66,0.00,,,0.01,0,Wunderground v.1.15,2013-01-02 03:36:00,
2013-01-01 20:46:00,32.8,24.4,30.21,SW,228,0.0,0.0,71,0.00,,,0.01,0,Wunderground v.1.15,2013-01-02 03:46:00,
2013-01-01 20:56:00,32.0,24.0,30.21,SW,229,0.0,0.0,72,0.00,,,0.01,0,Wunderground v.1.15,2013-01-02 03:56:00,
2013-01-01 21:01:00,31.8,23.5,30.21,SW,229,0.0,0.0,71,0.00,,,0.01,0,Wunderground v.1.15,2013-01-02 04:01:00,
2013-01-01 21:11:00,31.4,23.4,30.22,SW,228,0.0,0.0,72,0.00,,,0.01,0,Wunderground v.1.15,2013-01-02 04:11:00,
2013-01-01 21:21:00,30.3,23.0,30.20,SW,228,0.0,0.0,74,0.00,,,0.01,0,Wunderground v.1.15,2013-01-02 04:21:00,
2013-01-01 21:31:00,30.1,23.1,30.20,SW,229,0.0,0.0,75,0.00,,,0.01,0,Wunderground v.1.15,2013-01-02 04:31:00,
2013-01-01 21:36:00,30.1,23.4,30.19,SW,229,0.0,0.0,76,0.00,,,0.01,0,Wunderground v.1.15,2013-01-02 04:36:00,
2013-01-01 21:41:00,29.8,23.2,30.20,SW,228,0.0,0.0,76,0.00,,,0.01,0,Wunderground v.1.15,2013-01-02 04:41:00,
2013-01-01 21:51:00,29.4,23.1,30.21,SW,229,0.0,0.0,77,0.00,,,0.01,0,Wunderground v.1.15,2013-01-02 04:51:00,
2013-01-01 21:56:00,29.3,23.0,30.21,SW,228,0.0,0.0,77,0.00,,,0.01,0,Wunderground v.1.15,2013-01-02 04:56:00,
2013-01-01 22:01:00,29.6,23.0,30.20,SW,229,0.0,0.0,76,0.00,,,0.01,0,Wunderground v.1.15,2013-01-02 05:01:00,
2013-01-01 22:11:00,29.0,22.4,30.22,SW,229,0.0,0.0,76,0.00,,,0.01,0,Wunderground v.1.15,2013-01-02 05:11:00,
2013-01-01 22:16:00,28.8,22.2,30.22,SW,229,0.0,0.0,76,0.00,,,0.01,0,Wunderground v.1.15,2013-01-02 05:16:00,
2013-01-01 22:26:00,28.4,21.8,30.20,SW,229,0.0,0.0,76,0.00,,,0.01,0,Wunderground v.1.15,2013-01-02 05:26:00,
2013-01-01 22:31:00,28.4,22.1,30.20,SW,228,0.0,0.0,77,0.00,,,0.01,0,Wunderground v.1.15,2013-01-02 05:31:00,
2013-01-01 22:36:00,28.5,22.2,30.20,SW,229,0.0,0.0,77,0.00,,,0.01,0,Wunderground v.1.15,2013-01-02 05:36:00,
2013-01-01 22:41:00,28.5,22.2,30.20,SW,229,0.0,0.0,77,0.00,,,0.01,0,Wunderground v.1.15,2013-01-02 05:41:00,
2013-01-01 22:51:00,28.3,22.3,30.21,SW,229,0.0,0.0,78,0.00,,,0.01,0,Wunderground v.1.15,2013-01-02 05:51:00,
2013-01-01 23:01:00,28.3,22.6,30.20,SW,228,0.0,0.0,79,0.00,,,0.01,0,Wunderground v.1.15,2013-01-02 06:01:00,
2013-01-01 23:11:00,28.4,22.4,30.20,SW,229,0.0,0.0,78,0.00,,,0.01,0,Wunderground v.1.15,2013-01-02 06:11:00,
2013-01-01 23:21:00,28.5,22.2,30.18,SW,229,0.0,0.0,77,0.00,,,0.01,0,Wunderground v.1.15,2013-01-02 06:21:00,
2013-01-01 23:26:00,28.7,22.4,30.18,SW,228,0.0,0.0,77,0.00,,,0.01,0,Wunderground v.1.15,2013-01-02 06:26:00,
2013-01-01 23:31:00,27.8,20.9,30.18,SW,229,0.0,0.0,75,0.00,,,0.01,0,Wunderground v.1.15,2013-01-02 06:31:00,
2013-01-01 23:36:00,27.3,21.3,30.20,SW,228,0.0,0.0,78,0.00,,,0.01,0,Wunderground v.1.15,2013-01-02 06:36:00,
2013-01-01 23:41:00,27.3,21.6,30.20,SW,229,0.0,0.0,79,0.00,,,0.01,0,Wunderground v.1.15,2013-01-02 06:41:00,
2013-01-01 23:51:00,27.4,21.7,30.20,SW,229,0.0,0.0,79,0.00,,,0.01,0,Wunderground v.1.15,2013-01-02 06:51:00,